Aérodrome :
LOGIN :

S'inscrire | Disclaimer

   EN    FR    IT 

 










Légende :    VFR   VFR Marginal   IFR   IFR Intensif   IFR Très Intensif
Visi : 
Plafond : 
>= 8 km
>= 3000ft
5 à 8 km
1000 à 3000 ft
1500m à 5 km
500 à 1000 ft
800 à 1500m
200 à 500 ft
< 800m
< 200 ft
Symboles :   Orages  Brouillard  Fortes neiges  Fortes précipitations  Vent > 20 kt
SIGMETs :   Divers  Orages  Givrage  Turbulence  Onde Orograph.  Cendres Volcan.






- Altitude de l'aérodrome : 170 ft
- Code IATA : BGO


ENBR - Bergen , Flesland

DERNIER METAR :
  • 280120Z 14011KT 9999 FEW015 02/02 Q0990 RMK WIND 1200FT 15021KT

METARs EXPIRÉS :
  • 280050Z 14009KT 9999 FEW015 SCT035 02/02 Q0990 RMK WIND 1200FT 15020KT
  • 280020Z 15012KT 9999 FEW015 SCT035 02/02 Q0990 RMK WIND 1200FT 15019KT
  • 272350Z 15015KT 9999 FEW015 SCT035 03/02 Q0990 RMK WIND 1200FT 15019KT
  • 272320Z 15013KT 9999 FEW015CB SCT020 BKN040 02/02 Q0990 RMK WIND 1200FT 16019KT
  • 272250Z 16012KT 9999 -SHRA FEW015CB SCT020 BKN055 03/01 Q0990 RMK WIND 1200FT 16018KT

TAF TAF ENBR
Valide du 28 à 00h jusqu'au 29 à 00h UTC


2800/2824 16012KT 9999 FEW015TCU BKN040
TEMPO 2800/2803 4000 SHRA BKN014CB
BECMG 2803/2805 10010KT
BECMG 2809/2811 01008KT



MET'MAP, la Météo Aéronautique d'un coup d'oeil ! - Copyright ORBIFLY Décembre 2007 - Disclaimer

ORBIFLY MET'MAP TEAM :

Programmation & Développement : Alexandra Zaïnal
Sur une idée originale de : Baudouin d'Aumeries
Assistance à la programmation : Marc-Olivier Méhu
Soutien technique & logistique : Manuel Goepfert

Contact : metmap@orbifly.com




SOURCES & CREDITS :

   NOAA